Time;durP1;ratioP1;P1;durP2;ratioP2;P2;SDS_P1;SDS_P2;PMS_P1;PMS_P2;Temp;Humidity;BMP_temperature;BMP_pressure;BME280_temperature;BME280_humidity;BME280_pressure;Samples;Min_cycle;Max_cycle;Signal;HPM_P1;HPM_P2
2021/03/30 00:00:12;;;;;;;51.80;28.32;;;;;;;12.35;66.25;101575.00;2297889;77;28801;-68
2021/03/30 00:03:16;;;;;;;43.68;24.98;;;;;;;12.34;66.21;101568.35;2261127;78;27632;-67
2021/03/30 00:06:19;;;;;;;47.35;25.90;;;;;;;12.33;66.24;101572.83;2260964;78;33994;-68
2021/03/30 00:09:21;;;;;;;48.02;23.65;;;;;;;12.30;66.23;101571.14;2287989;77;29757;-74
2021/03/30 00:12:23;;;;;;;52.90;24.45;;;;;;;12.29;66.35;101573.42;2261165;78;27682;-71
2021/03/30 00:15:25;;;;;;;46.55;24.70;;;;;;;12.27;66.22;101560.98;2268492;77;29693;-73
2021/03/30 00:18:27;;;;;;;40.98;23.42;;;;;;;12.27;66.38;101567.22;2302700;77;32010;-74
2021/03/30 00:21:29;;;;;;;39.78;22.52;;;;;;;12.29;66.47;101561.33;2265229;77;33546;-74
2021/03/30 00:24:31;;;;;;;42.45;24.12;;;;;;;12.33;66.49;101566.59;2277662;77;29850;-73
2021/03/30 00:27:33;;;;;;;38.45;24.15;;;;;;;12.34;66.47;101563.84;2260605;78;27698;-74
2021/03/30 00:30:35;;;;;;;39.65;24.02;;;;;;;12.37;66.46;101569.59;2284957;77;28856;-73
2021/03/30 00:33:37;;;;;;;44.23;24.60;;;;;;;12.34;66.30;101570.55;2302376;77;31109;-72
2021/03/30 00:36:40;;;;;;;40.92;23.73;;;;;;;12.30;66.30;101568.94;2304137;77;33569;-72
2021/03/30 00:39:42;;;;;;;42.20;23.42;;;;;;;12.26;66.34;101574.00;2295099;77;28849;-73
2021/03/30 00:42:44;;;;;;;44.77;23.65;;;;;;;12.23;66.27;101572.77;2264994;78;27671;-73
2021/03/30 00:45:46;;;;;;;40.73;22.55;;;;;;;12.20;66.12;101573.77;2264950;78;29835;-73
2021/03/30 00:48:49;;;;;;;38.63;21.27;;;;;;;12.16;66.15;101578.83;2266085;77;30314;-75
2021/03/30 00:51:52;;;;;;;40.95;21.57;;;;;;;12.11;66.21;101571.39;2251456;77;33070;-73
2021/03/30 00:54:55;;;;;;;44.27;22.25;;;;;;;12.07;66.19;101580.03;2306791;77;28889;-74
2021/03/30 00:57:57;;;;;;;40.20;21.48;;;;;;;12.04;66.34;101570.73;2306687;77;27625;-73
2021/03/30 01:00:59;;;;;;;38.85;22.30;;;;;;;12.03;66.35;101577.52;2290013;77;28672;-72
2021/03/30 01:04:01;;;;;;;38.83;21.62;;;;;;;12.03;66.55;101573.48;2306537;77;31113;-73
2021/03/30 01:07:05;;;;;;;36.42;21.40;;;;;;;12.03;66.73;101568.11;2306411;77;33098;-72
2021/03/30 01:10:49;;;;;;;35.68;20.82;;;;;;;12.04;66.69;101574.77;2280044;77;29822;-73
2021/03/30 01:14:20;;;;;;;37.98;20.40;;;;;;;12.06;66.75;101573.38;2265884;77;27584;-72
2021/03/30 01:18:01;;;;;;;37.83;21.23;;;;;;;12.07;66.74;101570.62;2264982;78;28882;-72
2021/03/30 01:21:37;;;;;;;39.10;22.40;;;;;;;12.07;66.76;101576.00;2266972;77;32091;-72
2021/03/30 01:24:47;;;;;;;36.98;21.90;;;;;;;12.06;66.72;101571.56;2264764;78;33089;-73
2021/03/30 01:28:23;;;;;;;37.05;21.30;;;;;;;12.04;66.79;101573.42;2284590;77;28854;-72
2021/03/30 01:31:26;;;;;;;42.40;20.55;;;;;;;12.04;66.83;101569.88;2305875;77;27649;-73
2021/03/30 01:34:29;;;;;;;35.28;21.37;;;;;;;11.99;66.69;101570.91;2266735;78;28209;-73
2021/03/30 01:37:41;;;;;;;41.30;21.37;;;;;;;11.97;66.78;101574.07;2264521;78;31128;-69
2021/03/30 01:40:44;;;;;;;39.03;21.23;;;;;;;11.91;66.70;101561.33;2285043;77;33111;-70
2021/03/30 01:43:47;;;;;;;37.67;19.73;;;;;;;11.89;66.83;101564.53;2306187;77;28712;-70
2021/03/30 01:46:49;;;;;;;34.30;19.87;;;;;;;11.85;66.76;101563.28;2306368;77;27565;-70
2021/03/30 01:49:52;;;;;;;35.50;20.08;;;;;;;11.84;66.71;101564.69;2295517;77;28813;-70
2021/03/30 01:52:56;;;;;;;37.38;18.60;;;;;;;11.81;66.73;101563.00;2264534;78;31330;-70
2021/03/30 01:55:59;;;;;;;33.35;19.40;;;;;;;11.78;66.62;101559.08;2287274;77;33105;-70
2021/03/30 01:59:03;;;;;;;38.10;18.05;;;;;;;11.73;66.51;101561.03;2304970;77;28842;-71
2021/03/30 02:02:05;;;;;;;33.65;17.90;;;;;;;11.67;66.42;101564.80;2305986;77;27697;-70
2021/03/30 02:05:15;;;;;;;33.73;18.15;;;;;;;11.60;66.40;101560.56;2306120;77;29038;-71
2021/03/30 02:08:18;;;;;;;37.73;20.55;;;;;;;11.53;66.33;101557.69;2291485;77;31159;-71
2021/03/30 02:11:27;;;;;;;42.35;19.42;;;;;;;11.47;66.32;101560.56;2306178;77;34244;-71
2021/03/30 02:14:24;;;;;;;37.10;19.92;;;;;;;11.40;66.42;101558.55;2304678;77;28865;-70
2021/03/30 02:17:54;;;;;;;33.75;19.82;;;;;;;11.32;66.41;101562.82;2303933;77;27773;-72
2021/03/30 02:21:03;;;;;;;42.67;20.50;;;;;;;11.24;66.45;101560.87;2264242;77;29230;-70
2021/03/30 02:24:10;;;;;;;37.33;20.32;;;;;;;11.16;66.38;101558.43;2263975;78;32015;-70
2021/03/30 02:27:13;;;;;;;41.10;20.85;;;;;;;11.07;66.37;101560.05;2270924;77;33176;-70
2021/03/30 02:30:18;;;;;;;36.15;19.37;;;;;;;11.04;66.45;101568.18;2274755;77;28855;-72
2021/03/30 02:33:22;;;;;;;44.08;21.25;;;;;;;11.02;66.43;101570.92;2306435;77;27684;-70
2021/03/30 02:36:27;;;;;;;38.08;21.62;;;;;;;10.99;66.53;101569.67;2305926;75;30713;-69
2021/03/30 02:39:29;;;;;;;40.05;21.40;;;;;;;10.98;66.64;101567.91;2300697;77;32126;-69
2021/03/30 02:42:33;;;;;;;39.13;21.75;;;;;;;10.98;66.66;101567.91;2302412;77;34028;-70
2021/03/30 02:45:36;;;;;;;39.92;21.77;;;;;;;10.97;66.70;101578.22;2302549;77;29056;-68
2021/03/30 02:48:39;;;;;;;41.63;22.35;;;;;;;10.95;66.72;101584.09;2290032;77;27609;-72
2021/03/30 02:51:43;;;;;;;37.58;21.97;;;;;;;10.91;66.80;101581.97;2271947;77;29256;-71
2021/03/30 02:54:46;;;;;;;46.08;25.35;;;;;;;10.88;66.83;101589.23;2231243;78;31148;-72
2021/03/30 02:57:49;;;;;;;40.75;22.73;;;;;;;10.85;66.71;101586.64;2263363;77;33121;-72
2021/03/30 03:00:52;;;;;;;44.73;23.40;;;;;;;10.80;66.66;101589.47;2302451;77;28843;-71
2021/03/30 03:03:54;;;;;;;50.23;24.60;;;;;;;10.73;66.60;101585.20;2301449;77;27840;-69
2021/03/30 03:06:57;;;;;;;47.67;24.43;;;;;;;10.66;66.63;101587.66;2300315;77;28791;-72
2021/03/30 03:10:01;;;;;;;37.55;23.20;;;;;;;10.55;66.60;101586.16;2300836;77;31111;-71
2021/03/30 03:13:09;;;;;;;43.85;21.55;;;;;;;10.47;66.63;101589.53;2302692;77;32898;-73
2021/03/30 03:16:12;;;;;;;43.23;22.60;;;;;;;10.40;66.68;101592.84;2302429;77;28709;-71
2021/03/30 03:19:16;;;;;;;40.33;21.80;;;;;;;10.32;66.74;101591.69;2301260;77;27816;-71
2021/03/30 03:22:18;;;;;;;44.35;22.62;;;;;;;10.26;66.78;101586.97;2302375;77;28881;-70
2021/03/30 03:25:20;;;;;;;40.43;21.75;;;;;;;10.21;66.79;101592.42;2273774;77;32106;-72
2021/03/30 03:28:23;;;;;;;38.20;21.15;;;;;;;10.16;66.89;101593.89;2270417;77;33096;-73
2021/03/30 03:31:29;;;;;;;38.85;20.32;;;;;;;10.11;66.90;101592.27;2302138;77;28856;-74
2021/03/30 03:34:31;;;;;;;34.08;19.42;;;;;;;10.02;66.83;101597.41;2302652;77;27656;-76
2021/03/30 03:37:41;;;;;;;37.08;18.05;;;;;;;9.96;66.86;101595.77;2302243;75;28963;-74
2021/03/30 03:40:43;;;;;;;29.40;16.02;;;;;;;9.90;66.78;101594.58;2262392;77;31066;-73
2021/03/30 03:43:45;;;;;;;32.05;16.40;;;;;;;9.84;66.82;101601.45;2302679;77;33047;-69
2021/03/30 03:46:50;;;;;;;34.88;16.17;;;;;;;9.78;66.90;101603.80;2244839;77;30036;-72
2021/03/30 03:49:52;;;;;;;30.23;13.83;;;;;;;9.70;66.81;101604.47;2290892;77;27661;-72
2021/03/30 03:52:55;;;;;;;26.97;15.83;;;;;;;9.64;66.86;101609.95;2302743;77;28719;-73
2021/03/30 03:55:58;;;;;;;31.82;14.55;;;;;;;9.60;66.79;101613.17;2302766;77;31191;-73
2021/03/30 03:59:06;;;;;;;32.98;15.35;;;;;;;9.55;66.85;101611.06;2285043;77;33167;-71
2021/03/30 04:02:15;;;;;;;26.25;14.38;;;;;;;9.53;66.83;101616.46;2260696;77;30108;-71
2021/03/30 04:05:23;;;;;;;28.15;14.78;;;;;;;9.52;67.02;101613.80;2260937;78;27703;-72
2021/03/30 04:08:27;;;;;;;26.73;13.85;;;;;;;9.51;67.02;101616.95;2271699;77;29695;-75
2021/03/30 04:11:30;;;;;;;24.72;14.33;;;;;;;9.49;67.07;101616.10;2271813;77;31126;-72
2021/03/30 04:14:33;;;;;;;24.47;13.28;;;;;;;9.48;67.09;101621.50;2302586;77;33198;-73
2021/03/30 04:17:35;;;;;;;27.55;14.23;;;;;;;9.46;67.10;101621.52;2298055;77;29670;-75
2021/03/30 04:20:37;;;;;;;27.60;13.40;;;;;;;9.43;67.01;101620.28;2260879;78;27551;-75
2021/03/30 04:23:46;;;;;;;29.42;13.35;;;;;;;9.40;67.02;101619.02;2278463;77;28823;-72
2021/03/30 04:26:46;;;;;;;32.70;14.23;;;;;;;9.36;66.93;101625.34;2302267;77;32157;-72
2021/03/30 04:29:50;;;;;;;23.50;12.95;;;;;;;9.32;66.89;101628.55;2300365;77;32512;-69
2021/03/30 04:32:52;;;;;;;22.22;12.68;;;;;;;9.28;67.00;101627.72;2301416;77;29159;-69
2021/03/30 04:35:54;;;;;;;26.68;15.03;;;;;;;9.25;67.00;101630.92;2302373;77;27745;-69
2021/03/30 04:38:56;;;;;;;27.85;12.73;;;;;;;9.22;67.05;101630.98;2268393;77;29025;-74
2021/03/30 04:41:58;;;;;;;22.73;12.40;;;;;;;9.22;67.37;101636.34;2261670;78;31200;-73
2021/03/30 04:45:00;;;;;;;25.32;12.98;;;;;;;9.25;67.51;101637.17;2261706;78;32283;-74
2021/03/30 04:48:02;;;;;;;27.22;12.88;;;;;;;9.32;67.46;101638.35;2265668;77;30033;-73
2021/03/30 04:51:05;;;;;;;25.82;12.65;;;;;;;9.41;67.60;101643.51;2261729;77;27657;-71
2021/03/30 04:54:07;;;;;;;26.60;12.30;;;;;;;9.49;67.63;101646.00;2262563;77;28814;-71
2021/03/30 04:57:10;;;;;;;20.88;11.95;;;;;;;9.58;67.85;101646.67;2270254;77;31200;-70
2021/03/30 05:00:15;;;;;;;24.77;11.60;;;;;;;9.66;67.80;101649.16;2265376;77;33185;-69
2021/03/30 05:03:17;;;;;;;21.85;11.93;;;;;;;9.77;67.54;101659.58;2261520;77;29235;-70
2021/03/30 05:06:20;;;;;;;19.05;12.00;;;;;;;9.85;67.55;101653.59;2261566;78;27725;-69
2021/03/30 05:09:22;;;;;;;21.12;11.12;;;;;;;9.93;67.71;101653.41;2300589;77;29772;-70
2021/03/30 05:12:25;;;;;;;21.23;11.57;;;;;;;10.01;67.37;101653.20;2303242;77;31118;-70
2021/03/30 05:15:27;;;;;;;21.27;10.95;;;;;;;10.08;67.55;101653.92;2288576;77;33079;-68
2021/03/30 05:18:29;;;;;;;22.35;11.12;;;;;;;10.16;67.50;101659.98;2287845;77;30453;-74
2021/03/30 05:21:31;;;;;;;23.80;10.35;;;;;;;10.22;67.37;101661.61;2303342;77;27681;-78
2021/03/30 05:24:33;;;;;;;21.73;12.23;;;;;;;10.30;67.39;101668.53;2279562;77;29640;-72
2021/03/30 05:27:36;;;;;;;22.45;9.25;;;;;;;10.40;67.37;101668.30;2277399;77;31111;-71
2021/03/30 05:30:38;;;;;;;21.57;10.38;;;;;;;10.51;67.42;101675.58;2296426;77;32875;-72
2021/03/30 05:33:40;;;;;;;21.17;8.73;;;;;;;10.61;67.43;101670.41;2261087;78;29608;-71
2021/03/30 05:36:43;;;;;;;15.72;8.43;;;;;;;10.76;66.99;101679.80;2261843;77;27635;-75
2021/03/30 05:39:45;;;;;;;16.97;8.58;;;;;;;10.90;66.62;101674.05;2286946;77;28807;-74
2021/03/30 05:42:48;;;;;;;21.35;9.03;;;;;;;11.07;66.52;101686.98;2261707;78;31124;-72
2021/03/30 05:45:50;;;;;;;21.27;9.45;;;;;;;11.23;66.21;101678.48;2261570;78;33126;-70
2021/03/30 05:48:52;;;;;;;18.57;8.53;;;;;;;11.45;65.95;101682.72;2277266;77;29234;-70
2021/03/30 05:51:56;;;;;;;15.00;8.38;;;;;;;11.63;65.79;101683.94;2213614;80;27653;-74
2021/03/30 05:54:59;;;;;;;17.10;11.22;;;;;;;11.81;65.54;101689.20;2214842;80;28811;-69
2021/03/30 05:58:03;;;;;;;21.85;8.68;;;;;;;11.98;65.16;101687.31;2203687;80;31202;-70
2021/03/30 06:01:08;;;;;;;22.40;11.70;;;;;;;12.09;64.30;101688.75;2226038;80;33173;-72
2021/03/30 06:04:10;;;;;;;19.65;9.63;;;;;;;12.16;64.45;101695.21;2169475;81;28575;-71
2021/03/30 06:07:13;;;;;;;21.20;11.10;;;;;;;12.23;64.12;101696.36;2179677;80;27583;-73
2021/03/30 06:10:18;;;;;;;20.62;10.88;;;;;;;12.27;64.02;101698.02;2176140;81;29747;-73
2021/03/30 06:13:51;;;;;;;16.30;9.05;;;;;;;12.33;63.98;101696.44;2179023;81;30994;-73
2021/03/30 06:16:57;;;;;;;26.02;11.43;;;;;;;12.38;63.91;101697.17;2176779;80;33106;-72
2021/03/30 06:19:59;;;;;;;26.35;10.45;;;;;;;12.44;63.50;101698.31;2218033;80;29212;-71
2021/03/30 06:23:04;;;;;;;26.60;13.72;;;;;;;12.68;63.42;101705.08;2215002;80;27671;-73
2021/03/30 06:26:16;;;;;;;25.43;10.82;;;;;;;13.07;63.20;101698.32;2218040;80;28821;-68
2021/03/30 06:29:36;;;;;;;23.60;9.80;;;;;;;13.58;62.56;101696.83;2212788;80;31090;-73
2021/03/30 06:32:39;;;;;;;19.48;9.43;;;;;;;14.12;62.13;101691.96;2211141;80;33539;-71
2021/03/30 06:35:41;;;;;;;19.90;8.83;;;;;;;14.61;61.09;101692.13;2225992;80;29169;-71
2021/03/30 06:39:01;;;;;;;13.25;7.28;;;;;;;14.99;61.13;101696.28;2214517;80;27643;-68
2021/03/30 06:45:27;;;;;;;19.05;8.30;;;;;;;15.82;59.28;101704.98;2252133;77;32727;-69
2021/03/30 06:48:29;;;;;;;16.40;8.08;;;;;;;16.15;58.33;101709.70;2217024;80;27687;-79
2021/03/30 06:51:33;;;;;;;16.55;8.55;;;;;;;16.52;58.37;101714.58;2217631;80;30084;-75
2021/03/30 06:54:35;;;;;;;19.60;8.53;;;;;;;16.90;57.68;101717.55;2155247;81;32041;-68
2021/03/30 06:57:47;;;;;;;13.22;8.40;;;;;;;17.26;56.72;101718.36;2187162;80;33196;-71
2021/03/30 07:00:50;;;;;;;16.23;7.22;;;;;;;17.94;55.35;101710.48;2217417;80;28563;-71
2021/03/30 07:03:57;;;;;;;17.20;8.88;;;;;;;17.94;55.35;101710.48;2217538;80;28208;-72
2021/03/30 07:06:59;;;;;;;16.40;7.28;;;;;;;18.04;54.89;101716.27;2216886;80;29743;-86
2021/03/30 07:10:02;;;;;;;20.45;9.50;;;;;;;18.32;54.47;101718.70;2211221;80;31135;-68
2021/03/30 07:13:05;;;;;;;18.27;9.15;;;;;;;18.55;53.48;101713.73;2214907;80;32939;-71
2021/03/30 07:16:25;;;;;;;10.98;7.62;;;;;;;18.78;53.05;101711.83;2206848;80;28923;-71
2021/03/30 07:19:31;;;;;;;14.90;8.63;;;;;;;19.02;52.83;101714.03;2177357;80;27801;-73
2021/03/30 07:22:34;;;;;;;13.78;6.62;;;;;;;19.21;51.84;101716.44;2198072;80;28977;-75
2021/03/30 07:26:10;;;;;;;13.83;7.55;;;;;;;19.39;50.64;101718.48;2177861;80;31125;-71
2021/03/30 07:29:18;;;;;;;13.48;7.22;;;;;;;19.54;50.68;101718.46;2178878;80;34026;-69
2021/03/30 07:33:09;;;;;;;13.75;7.03;;;;;;;19.78;50.04;101724.14;2171226;78;28861;-70
2021/03/30 07:36:27;;;;;;;15.05;7.85;;;;;;;19.98;49.41;101727.42;2199343;80;27822;-71
2021/03/30 07:39:53;;;;;;;16.27;7.97;;;;;;;20.27;48.93;101730.88;2190161;78;28190;-71
2021/03/30 07:42:57;;;;;;;14.38;8.55;;;;;;;20.55;47.97;101730.83;2178985;81;32034;-71
2021/03/30 07:46:02;;;;;;;12.90;7.37;;;;;;;20.77;47.95;101731.60;2185441;81;33128;-71
2021/03/30 07:49:05;;;;;;;15.20;7.75;;;;;;;21.03;47.60;101730.27;2185672;81;29051;-69
2021/03/30 07:52:21;;;;;;;18.98;7.30;;;;;;;21.20;47.23;101734.49;2218324;80;27625;-70
2021/03/30 07:58:44;;;;;;;13.40;7.58;;;;;;;21.63;46.06;101737.34;2342919;76;27629;-68
2021/03/30 08:01:46;;;;;;;13.85;7.55;;;;;;;21.70;45.28;101738.14;2303463;77;28143;-68
2021/03/30 08:05:05;;;;;;;11.40;7.17;;;;;;;21.83;45.14;101734.52;2295836;77;28860;-69
2021/03/30 08:08:25;;;;;;;13.35;7.60;;;;;;;21.99;44.31;101736.95;2303147;77;31141;-73
2021/03/30 08:11:50;;;;;;;14.83;7.80;;;;;;;22.03;44.63;101728.03;2303520;77;33094;-73
2021/03/30 08:14:52;;;;;;;16.32;8.25;;;;;;;22.12;44.03;101739.13;2277160;77;28604;-71
2021/03/30 08:17:57;;;;;;;11.03;7.33;;;;;;;22.27;44.14;101737.09;2280581;77;27675;-75
2021/03/30 08:21:10;;;;;;;15.38;7.55;;;;;;;22.47;43.54;101732.00;2241054;77;28679;-75
2021/03/30 08:24:13;;;;;;;12.23;7.55;;;;;;;22.61;43.25;101730.91;2301057;77;31373;-72
2021/03/30 08:27:37;;;;;;;11.80;7.20;;;;;;;22.72;42.71;101737.78;2299437;77;34297;-75
2021/03/30 08:30:53;;;;;;;10.00;7.05;;;;;;;22.76;42.51;101731.58;2275064;77;36837;-74
2021/03/30 08:33:59;;;;;;;13.18;7.97;;;;;;;22.79;42.58;101734.07;2266986;77;27999;-73
2021/03/30 08:37:12;;;;;;;15.70;8.33;;;;;;;22.79;42.32;101731.34;2263838;75;28811;-74
2021/03/30 08:40:38;;;;;;;14.13;8.88;;;;;;;22.66;42.17;101740.12;2261649;78;31063;-75
2021/03/30 08:43:40;;;;;;;13.05;7.75;;;;;;;22.46;41.83;101733.84;2276824;77;33931;-75
2021/03/30 08:46:47;;;;;;;13.83;8.08;;;;;;;22.23;41.89;101735.58;2303116;77;29742;-72
2021/03/30 08:49:49;;;;;;;13.30;7.60;;;;;;;21.98;41.80;101749.74;2303357;77;27687;-72
2021/03/30 08:52:57;;;;;;;8.58;6.75;;;;;;;21.76;41.95;101736.81;2293671;77;28788;-73
2021/03/30 08:56:02;;;;;;;13.78;7.55;;;;;;;21.60;42.41;101737.53;2261836;77;31170;-69
2021/03/30 08:59:04;;;;;;;20.12;10.03;;;;;;;21.44;42.42;101739.16;2261752;78;33126;-71
2021/03/30 09:02:11;;;;;;;15.50;8.18;;;;;;;21.35;42.56;101738.83;2261701;78;28901;-69
2021/03/30 09:05:30;;;;;;;20.92;9.88;;;;;;;21.35;42.53;101739.34;2262232;77;27869;-71
2021/03/30 09:08:45;;;;;;;16.60;8.15;;;;;;;21.37;42.45;101737.38;2258704;78;27809;-71
2021/03/30 09:11:47;;;;;;;13.98;8.05;;;;;;;21.33;42.27;101731.77;2280313;77;31581;-72
2021/03/30 09:15:06;;;;;;;10.45;7.20;;;;;;;21.29;41.93;101735.69;2267156;77;33104;-73
2021/03/30 09:18:09;;;;;;;12.98;7.87;;;;;;;21.20;42.09;101732.66;2260840;78;28916;-72
2021/03/30 09:21:17;;;;;;;13.60;8.78;;;;;;;21.14;42.14;101733.59;2260750;78;27733;-72
2021/03/30 09:24:39;;;;;;;15.72;8.28;;;;;;;21.12;42.09;101725.50;2261243;77;29855;-73
2021/03/30 09:27:39;;;;;;;13.30;8.48;;;;;;;21.07;41.98;101732.66;2259586;78;31123;-73
2021/03/30 09:30:43;;;;;;;12.35;8.03;;;;;;;21.03;42.12;101728.40;2265327;77;33104;-72
2021/03/30 09:33:47;;;;;;;13.90;8.38;;;;;;;21.01;41.95;101727.66;2288193;77;29712;-72
2021/03/30 09:36:49;;;;;;;10.30;7.53;;;;;;;20.95;42.33;101724.86;2260897;78;27688;-72
2021/03/30 09:39:51;;;;;;;17.17;8.38;;;;;;;20.91;42.08;101727.44;2260798;78;28866;-73
2021/03/30 09:42:54;;;;;;;16.93;8.60;;;;;;;20.85;41.70;101724.28;2263088;77;31121;-74
2021/03/30 09:45:57;;;;;;;14.15;8.45;;;;;;;20.79;42.11;101723.73;2284020;77;34035;-75
2021/03/30 09:49:08;;;;;;;14.80;8.58;;;;;;;20.75;42.41;101722.19;2261736;77;29392;-69
2021/03/30 09:52:22;;;;;;;15.72;9.00;;;;;;;20.73;42.35;101726.84;2272383;75;27776;-73
2021/03/30 09:55:37;;;;;;;12.30;8.43;;;;;;;20.71;42.42;101720.62;2282662;75;28843;-72
2021/03/30 09:58:42;;;;;;;12.07;8.20;;;;;;;20.65;41.91;101719.70;2279584;75;31175;-74
2021/03/30 10:01:47;;;;;;;16.45;10.85;;;;;;;20.58;42.34;101715.66;2278917;76;33085;-71
2021/03/30 10:04:54;;;;;;;15.20;10.35;;;;;;;20.57;42.54;101710.71;2276971;76;27939;-72
2021/03/30 10:08:01;;;;;;;16.12;10.80;;;;;;;20.58;42.39;101715.66;2274137;76;28177;-72
2021/03/30 10:11:06;;;;;;;16.82;9.83;;;;;;;20.56;42.46;101710.33;2245454;77;28869;-72
2021/03/30 10:14:27;;;;;;;14.15;10.13;;;;;;;20.58;42.70;101707.48;2280228;76;31366;-72
2021/03/30 10:17:35;;;;;;;14.28;9.03;;;;;;;20.56;42.44;101713.05;2276688;76;33096;-71
2021/03/30 10:20:49;;;;;;;13.80;9.08;;;;;;;20.58;42.71;101702.93;2277844;76;29784;-73
2021/03/30 10:23:53;;;;;;;14.18;9.30;;;;;;;20.60;42.41;101705.02;2290925;76;28478;-74
2021/03/30 10:27:06;;;;;;;17.73;10.38;;;;;;;20.58;42.56;101704.77;2282645;76;29822;-73
2021/03/30 10:30:10;;;;;;;16.12;10.48;;;;;;;20.56;42.53;101698.08;2274288;77;31238;-70
2021/03/30 10:33:16;;;;;;;18.95;10.70;;;;;;;20.55;42.31;101690.00;2274570;75;33097;-71
2021/03/30 10:36:17;;;;;;;15.60;10.32;;;;;;;20.54;42.55;101687.78;2281601;75;28859;-69
2021/03/30 10:39:35;;;;;;;18.92;9.75;;;;;;;20.52;42.48;101688.38;2283052;76;27652;-71
2021/03/30 10:42:40;;;;;;;15.10;9.50;;;;;;;20.53;42.65;101685.14;2284044;77;29702;-67
2021/03/30 10:45:45;;;;;;;22.90;13.13;;;;;;;20.57;42.71;101680.77;2285497;77;31122;-66
2021/03/30 10:49:05;;;;;;;14.60;10.75;;;;;;;20.58;42.56;101677.06;2273260;77;33095;-65
2021/03/30 10:52:14;;;;;;;18.05;10.85;;;;;;;20.62;42.61;101674.98;2285356;76;28860;-66
2021/03/30 10:55:18;;;;;;;14.28;9.70;;;;;;;20.60;42.86;101672.35;2281193;76;27731;-66
2021/03/30 10:58:20;;;;;;;17.67;9.65;;;;;;;20.62;42.68;101671.76;2303167;75;28704;-67
2021/03/30 11:01:22;;;;;;;16.85;10.85;;;;;;;20.65;42.71;101666.61;2305897;77;31228;-66
2021/03/30 11:04:24;;;;;;;16.48;9.25;;;;;;;20.67;42.39;101665.13;2305494;77;34500;-65
2021/03/30 11:07:26;;;;;;;15.45;9.05;;;;;;;20.68;42.56;101661.42;2304960;77;29854;-64
2021/03/30 11:10:31;;;;;;;18.55;9.68;;;;;;;20.69;42.63;101659.94;2263226;78;28048;-65
2021/03/30 11:13:33;;;;;;;17.75;10.85;;;;;;;20.71;42.62;101659.34;2264555;77;28791;-64
2021/03/30 11:16:35;;;;;;;15.43;10.15;;;;;;;20.69;42.23;101655.85;2264147;78;32106;-65
2021/03/30 11:19:37;;;;;;;18.67;11.03;;;;;;;20.69;42.68;101649.55;2264190;78;34012;-64
2021/03/30 11:22:43;;;;;;;16.90;10.48;;;;;;;20.70;42.53;101652.16;2263725;78;28868;-63
2021/03/30 11:25:45;;;;;;;18.65;11.22;;;;;;;20.69;42.45;101661.30;2264216;78;28193;-64
2021/03/30 11:28:48;;;;;;;17.65;11.30;;;;;;;20.66;42.08;101657.46;2264493;78;28900;-64
2021/03/30 11:35:16;;;;;;;13.98;9.45;;;;;;;20.54;42.22;101650.13;2264403;77;33974;-66
2021/03/30 11:38:16;;;;;;;14.23;9.58;;;;;;;20.51;42.52;101644.42;2264236;78;28864;-67
2021/03/30 11:41:19;;;;;;;14.15;8.13;;;;;;;20.53;42.44;101637.50;2264138;78;27617;-66
2021/03/30 11:44:21;;;;;;;16.00;10.18;;;;;;;20.54;42.62;101641.97;2264486;78;28810;-65
2021/03/30 11:47:24;;;;;;;13.18;8.73;;;;;;;20.54;42.30;101640.13;2264234;78;31183;-65
2021/03/30 11:50:29;;;;;;;14.55;9.63;;;;;;;20.53;42.63;101634.77;2264310;78;33272;-65
2021/03/30 11:53:35;;;;;;;14.65;10.25;;;;;;;20.53;42.38;101628.86;2280419;77;29028;-65
2021/03/30 11:56:38;;;;;;;15.32;9.85;;;;;;;20.54;42.42;101629.72;2306229;77;27735;-66
2021/03/30 11:59:41;;;;;;;15.32;10.53;;;;;;;20.52;42.42;101619.45;2306204;77;28798;-64
2021/03/30 12:02:44;;;;;;;18.10;9.60;;;;;;;20.54;42.56;101621.08;2273339;76;32122;-64
2021/03/30 12:05:47;;;;;;;13.22;8.63;;;;;;;20.57;42.75;101609.08;2264037;78;33076;-66
2021/03/30 12:08:49;;;;;;;15.48;9.60;;;;;;;20.60;42.69;101607.52;2291980;77;28757;-64
2021/03/30 12:11:53;;;;;;;12.03;8.15;;;;;;;20.63;42.64;101605.43;2304537;77;28151;-66
2021/03/30 12:14:55;;;;;;;14.35;9.10;;;;;;;20.68;42.86;101597.42;2304478;77;28850;-64
2021/03/30 12:17:58;;;;;;;17.67;9.03;;;;;;;20.70;42.76;101594.97;2304302;77;31125;-65
2021/03/30 12:21:00;;;;;;;13.95;8.33;;;;;;;20.73;42.58;101588.45;2304293;77;33970;-65
2021/03/30 12:24:03;;;;;;;14.20;8.28;;;;;;;20.74;42.54;101586.11;2303655;77;28904;-64
2021/03/30 12:27:10;;;;;;;14.65;8.70;;;;;;;20.73;42.40;101583.86;2304629;77;27628;-65
2021/03/30 12:30:15;;;;;;;16.55;10.08;;;;;;;20.72;42.16;101582.11;2304160;77;29679;-66
2021/03/30 12:33:17;;;;;;;14.55;8.75;;;;;;;20.70;42.13;101583.22;2305340;77;31131;-64
2021/03/30 12:36:20;;;;;;;18.40;9.23;;;;;;;20.67;42.21;101574.79;2291208;76;33092;-64
2021/03/30 12:39:23;;;;;;;15.23;7.30;;;;;;;20.67;42.56;101575.27;2282211;77;28910;-64
2021/03/30 12:42:26;;;;;;;10.72;6.58;;;;;;;20.70;42.53;101573.69;2282541;78;27592;-64
2021/03/30 12:45:29;;;;;;;11.48;7.62;;;;;;;20.71;42.68;101577.64;2282772;77;29786;-66
2021/03/30 12:48:32;;;;;;;11.48;7.25;;;;;;;20.74;42.34;101571.12;2282886;78;32156;-65
2021/03/30 12:51:35;;;;;;;14.90;8.75;;;;;;;20.74;42.52;101565.17;2282804;78;33971;-64
2021/03/30 12:54:37;;;;;;;18.35;8.23;;;;;;;20.80;42.49;101567.97;2282822;78;28794;-65
2021/03/30 12:57:39;;;;;;;16.75;11.25;;;;;;;20.83;42.58;101562.81;2291386;77;27644;-65
2021/03/30 13:00:43;;;;;;;29.75;18.73;;;;;;;20.84;42.37;101565.41;2260683;78;29347;-71
2021/03/30 13:03:45;;;;;;;15.45;9.68;;;;;;;20.84;42.08;101561.33;2260626;78;32170;-64
2021/03/30 13:06:48;;;;;;;14.47;8.55;;;;;;;20.84;42.02;101558.60;2261656;78;33087;-65
2021/03/30 13:09:51;;;;;;;15.25;9.43;;;;;;;20.84;42.24;101557.23;2260969;78;30119;-65
2021/03/30 13:12:53;;;;;;;10.25;6.78;;;;;;;20.85;42.09;101553.53;2261964;78;28127;-64
2021/03/30 13:15:56;;;;;;;13.20;7.00;;;;;;;20.84;42.01;101549.58;2261879;77;30031;-66
2021/03/30 13:18:58;;;;;;;13.30;7.55;;;;;;;20.82;42.06;101543.36;2236270;78;31205;-66
2021/03/30 13:22:00;;;;;;;19.10;7.75;;;;;;;20.81;42.12;101534.30;2261383;78;33979;-65
2021/03/30 13:25:04;;;;;;;9.70;6.42;;;;;;;20.83;42.13;101540.52;2261676;78;29145;-65
2021/03/30 13:28:08;;;;;;;18.53;7.37;;;;;;;20.85;42.09;101534.47;2261991;78;28185;-65
2021/03/30 13:31:10;;;;;;;12.93;6.80;;;;;;;20.86;41.81;101525.31;2261840;78;29707;-67
2021/03/30 13:34:13;;;;;;;11.63;6.37;;;;;;;20.85;41.74;101530.89;2261513;78;32035;-65
2021/03/30 13:37:17;;;;;;;12.70;6.33;;;;;;;20.85;41.55;101526.30;2261012;78;33095;-65
2021/03/30 13:40:19;;;;;;;10.17;7.03;;;;;;;20.84;41.09;101521.83;2261046;78;29152;-65
2021/03/30 13:43:21;;;;;;;11.75;6.47;;;;;;;20.87;41.71;101526.17;2261942;78;27624;-65
2021/03/30 13:46:24;;;;;;;10.18;6.45;;;;;;;20.86;41.56;101518.50;2261648;77;28782;-64
2021/03/30 13:49:29;;;;;;;11.73;6.25;;;;;;;20.85;41.50;101513.19;2261280;78;32113;-64
2021/03/30 13:52:31;;;;;;;13.03;6.20;;;;;;;20.85;41.68;101512.67;2268812;77;33113;-65
2021/03/30 13:55:34;;;;;;;11.80;6.83;;;;;;;20.86;41.22;101506.25;2303397;77;29166;-65
2021/03/30 13:58:36;;;;;;;11.25;6.35;;;;;;;20.85;41.39;101500.92;2303168;77;27669;-65
2021/03/30 14:01:40;;;;;;;11.53;6.55;;;;;;;20.85;41.32;101507.73;2269983;77;28789;-64
2021/03/30 14:04:43;;;;;;;12.45;5.55;;;;;;;20.87;41.59;101497.56;2261107;78;31112;-66
2021/03/30 14:07:46;;;;;;;12.98;6.08;;;;;;;20.89;41.28;101492.88;2261620;78;34316;-64
2021/03/30 14:10:51;;;;;;;9.38;6.03;;;;;;;20.91;41.26;101488.19;2261759;78;30082;-64
2021/03/30 14:13:57;;;;;;;12.55;5.75;;;;;;;20.91;41.18;101490.44;2261799;78;27677;-65
2021/03/30 14:17:05;;;;;;;9.93;5.53;;;;;;;20.90;40.94;101494.15;2261319;78;28738;-65
2021/03/30 14:20:09;;;;;;;8.88;5.70;;;;;;;20.92;41.09;101490.82;2261142;78;30963;-65